Time;durP1;ratioP1;P1;durP2;ratioP2;P2;SDS_P1;SDS_P2;PMS_P1;PMS_P2;Temp;Humidity;BMP_temperature;BMP_pressure;BME280_temperature;BME280_humidity;BME280_pressure;Samples;Min_cycle;Max_cycle;Signal;HPM_P1;HPM_P2
2023/01/17 00:01:37;;;;;;;;;19.00;14.00;;;;;4.98;66.27;98480.97;5060119;28;45274;-50
2023/01/17 00:12:14;;;;;;;;;13.50;12.75;;;;;4.88;66.07;98457.81;5059797;28;45303;-51
2023/01/17 00:14:39;;;;;;;;;16.25;14.50;;;;;4.86;66.60;98454.38;5060159;28;45392;-52
2023/01/17 00:17:05;;;;;;;;;14.25;13.25;;;;;4.89;66.21;98456.06;5059877;28;45306;-52
2023/01/17 01:34:19;;;;;;;;;11.50;11.50;;;;;4.57;66.65;98410.97;5062459;28;45678;-52
2023/01/17 01:36:44;;;;;;;;;10.75;10.75;;;;;4.59;66.26;98401.38;5062271;28;45208;-54
2023/01/17 01:39:09;;;;;;;;;9.00;9.00;;;;;4.58;66.61;98401.41;5062587;28;45426;-52
2023/01/17 01:41:35;;;;;;;;;16.00;13.50;;;;;4.59;66.56;98400.50;5062096;28;45519;-53
2023/01/17 01:44:00;;;;;;;;;16.00;12.50;;;;;4.59;66.26;98403.97;5062294;28;46287;-52
2023/01/17 01:46:34;;;;;;;;;15.75;13.50;;;;;4.55;66.40;98394.53;5062305;28;45329;-52
2023/01/17 01:49:04;;;;;;;;;13.00;12.50;;;;;4.56;66.28;98394.47;5062281;28;45334;-54
2023/01/17 01:51:44;;;;;;;;;13.25;11.25;;;;;4.59;66.56;98398.78;5061962;28;45192;-52
2023/01/17 01:54:24;;;;;;;;;12.00;11.00;;;;;4.60;66.58;98395.25;5061936;28;45327;-52
2023/01/17 01:56:53;;;;;;;;;12.50;10.50;;;;;4.60;66.63;98392.66;5061927;28;45359;-53
2023/01/17 01:59:21;;;;;;;;;12.25;11.25;;;;;4.61;66.35;98396.13;5061913;28;45217;-54
2023/01/17 02:01:49;;;;;;;;;16.00;13.25;;;;;4.59;66.56;98377.97;5062207;28;45433;-53
2023/01/17 02:04:14;;;;;;;;;14.00;13.00;;;;;4.61;66.43;98380.50;5061717;28;46229;-52
2023/01/17 02:06:49;;;;;;;;;13.75;12.00;;;;;4.63;66.35;98376.09;5061714;28;45282;-50
2023/01/17 02:09:17;;;;;;;;;14.50;12.25;;;;;4.63;66.53;98374.38;5062193;28;45390;-54
2023/01/17 02:11:44;;;;;;;;;15.00;10.00;;;;;4.63;66.38;98363.09;5061584;28;45442;-54
2023/01/17 02:14:18;;;;;;;;;13.00;12.00;;;;;4.61;66.51;98357.94;5061354;28;46956;-51
2023/01/17 02:17:11;;;;;;;;;13.00;12.00;;;;;4.62;66.71;98371.81;5061605;28;45238;-52
2023/01/17 02:19:53;;;;;;;;;15.00;13.50;;;;;4.59;66.34;98367.56;5060503;28;45434;-53
2023/01/17 02:22:40;;;;;;;;;13.00;12.50;;;;;4.58;66.48;98364.97;5061647;28;45366;-52
2023/01/17 02:25:14;;;;;;;;;13.25;12.50;;;;;4.55;66.48;98353.78;5061450;28;45257;-54
2023/01/17 02:28:26;;;;;;;;;15.00;14.50;;;;;4.54;66.66;98361.59;5061490;28;45248;-51
2023/01/17 02:30:59;;;;;;;;;15.00;12.25;;;;;4.53;66.52;98350.34;5054006;28;45322;-53
2023/01/17 02:33:39;;;;;;;;;11.75;11.50;;;;;4.53;66.36;98344.31;5061694;28;45314;-52
2023/01/17 02:36:09;;;;;;;;;13.00;13.00;;;;;4.52;66.35;98335.63;5061447;28;45253;-54
2023/01/17 02:38:44;;;;;;;;;13.75;13.75;;;;;4.52;66.52;98330.44;5061278;28;45306;-52
2023/01/17 02:41:20;;;;;;;;;13.50;9.50;;;;;4.50;66.37;98324.44;5061232;28;45308;-54
2023/01/17 02:43:49;;;;;;;;;17.25;11.75;;;;;4.49;66.40;98314.94;5061306;28;45685;-54
2023/01/17 02:46:15;;;;;;;;;13.50;12.25;;;;;4.47;66.53;98319.31;5060760;28;46314;-53
2023/01/17 02:48:41;;;;;;;;;16.25;13.75;;;;;4.46;66.37;98308.97;5061399;28;45319;-53
2023/01/17 02:51:31;;;;;;;;;12.50;12.25;;;;;4.45;66.43;98307.25;5061260;28;45211;-53
2023/01/17 02:54:23;;;;;;;;;12.50;11.75;;;;;4.43;66.77;98296.91;5061134;28;45437;-53
2023/01/17 02:57:08;;;;;;;;;21.25;13.25;;;;;4.41;66.44;98287.44;5060972;28;46354;-53
2023/01/17 02:59:50;;;;;;;;;15.00;14.25;;;;;4.42;66.46;98286.53;5061171;28;45252;-53
2023/01/17 03:02:20;;;;;;;;;13.50;13.00;;;;;4.40;66.43;98268.34;5061120;28;45236;-54
2023/01/17 03:05:04;;;;;;;;;13.75;11.75;;;;;4.38;66.29;98265.81;5060929;28;45327;-51
2023/01/17 03:07:31;;;;;;;;;12.00;10.00;;;;;4.36;66.63;98264.97;5059597;28;47346;-54
2023/01/17 03:10:02;;;;;;;;;16.00;14.25;;;;;4.36;66.42;98251.16;5060807;28;45302;-54
2023/01/17 03:12:29;;;;;;;;;14.00;12.00;;;;;4.35;66.29;98244.22;5060945;28;45146;-52
2023/01/17 03:14:55;;;;;;;;;12.75;11.00;;;;;4.35;66.67;98245.09;5061015;28;45371;-50
2023/01/17 03:17:28;;;;;;;;;16.75;13.50;;;;;4.36;66.40;98245.94;5060736;28;45423;-53
2023/01/17 03:19:53;;;;;;;;;11.75;11.75;;;;;4.35;66.24;98244.22;5060906;28;45231;-52
2023/01/17 03:22:18;;;;;;;;;16.00;12.50;;;;;4.31;66.22;98235.66;5059302;28;45280;-50
2023/01/17 03:24:44;;;;;;;;;12.75;12.75;;;;;4.33;66.39;98235.66;5060826;28;45213;-53
2023/01/17 03:27:09;;;;;;;;;18.00;13.25;;;;;4.29;66.39;98226.19;5059718;28;45528;-51
2023/01/17 03:29:34;;;;;;;;;14.00;13.00;;;;;4.30;66.53;98231.38;5070494;28;45521;-53
2023/01/17 03:31:59;;;;;;;;;13.50;12.00;;;;;4.29;66.76;98231.41;5060830;28;45304;-50
2023/01/17 03:34:25;;;;;;;;;8.00;8.00;;;;;4.28;66.46;98232.31;5060787;28;45264;-52
2023/01/17 03:36:50;;;;;;;;;18.50;15.00;;;;;4.26;66.44;98228.91;5060250;28;45387;-51
2023/01/17 03:39:15;;;;;;;;;17.75;15.75;;;;;4.25;66.27;98228.03;5059188;28;45339;-53
2023/01/17 03:41:41;;;;;;;;;17.50;16.00;;;;;4.22;66.48;98223.78;5060381;28;45742;-53
2023/01/17 03:44:06;;;;;;;;;19.75;13.75;;;;;4.20;66.60;98215.19;5060469;28;45315;-51
2023/01/17 03:46:31;;;;;;;;;16.25;13.00;;;;;4.18;66.94;98211.78;5060355;28;46810;-49
2023/01/17 03:48:57;;;;;;;;;16.50;14.75;;;;;4.19;66.47;98213.47;5059054;28;45564;-53
2023/01/17 03:51:22;;;;;;;;;17.25;15.75;;;;;4.19;66.88;98213.47;5060282;28;45696;-52
2023/01/17 03:53:48;;;;;;;;;17.50;14.25;;;;;4.18;66.74;98206.56;5060324;28;45580;-53
2023/01/17 03:56:14;;;;;;;;;20.75;17.00;;;;;4.16;66.75;98205.75;5060061;28;45339;-51
2023/01/17 03:58:40;;;;;;;;;17.75;17.25;;;;;4.17;66.77;98196.22;5058820;28;45213;-51
2023/01/17 04:01:05;;;;;;;;;16.50;11.75;;;;;4.10;66.62;98185.16;5060296;28;45217;-53
2023/01/17 04:03:30;;;;;;;;;18.25;16.00;;;;;4.14;66.87;98193.69;5059977;28;45375;-53
2023/01/17 04:05:56;;;;;;;;;16.50;14.25;;;;;4.10;66.56;98187.75;5060087;28;46298;-53
2023/01/17 04:08:21;;;;;;;;;17.25;12.00;;;;;4.07;66.61;98188.69;5059940;28;45234;-52
2023/01/17 04:10:47;;;;;;;;;12.75;12.75;;;;;4.06;66.82;98183.53;5060301;28;45789;-52
2023/01/17 04:13:12;;;;;;;;;12.25;12.25;;;;;4.01;66.34;98183.69;5059945;28;45560;-52
2023/01/17 04:15:38;;;;;;;;;14.00;12.75;;;;;4.05;66.84;98198.28;5059879;28;46847;-53
2023/01/17 04:18:05;;;;;;;;;13.00;11.25;;;;;4.03;66.62;98194.03;5059879;28;45303;-52
2023/01/17 04:20:37;;;;;;;;;13.50;12.00;;;;;4.02;66.70;98203.53;5060114;28;45434;-52
2023/01/17 04:23:03;;;;;;;;;12.25;11.75;;;;;4.00;66.39;98196.69;5059725;28;45398;-49
2023/01/17 04:25:29;;;;;;;;;16.75;12.00;;;;;3.99;66.56;98197.63;5059994;28;45344;-53
2023/01/17 04:27:55;;;;;;;;;12.00;10.75;;;;;3.99;66.93;98200.22;5059652;28;45330;-49
2023/01/17 04:30:21;;;;;;;;;11.75;11.75;;;;;3.98;66.75;98193.31;5069244;28;45282;-50
2023/01/17 04:32:47;;;;;;;;;14.75;14.25;;;;;3.97;66.39;98189.84;5059619;28;45314;-51
2023/01/17 04:35:12;;;;;;;;;12.25;11.25;;;;;3.98;66.46;98188.09;5059253;28;45319;-52
2023/01/17 04:37:38;;;;;;;;;12.00;11.50;;;;;3.97;66.80;98194.19;5060543;28;45311;-52
2023/01/17 04:40:04;;;;;;;;;16.00;13.00;;;;;3.97;66.77;98183.78;5063523;28;45608;-52
2023/01/17 04:42:30;;;;;;;;;16.75;13.25;;;;;3.98;66.41;98182.91;5061428;28;45577;-49
2023/01/17 04:44:55;;;;;;;;;16.00;11.50;;;;;3.97;67.06;98176.00;5063267;28;45224;-52
2023/01/17 04:47:21;;;;;;;;;13.75;11.50;;;;;3.98;66.66;98182.91;5063251;28;45241;-53
2023/01/17 04:49:46;;;;;;;;;13.75;13.00;;;;;3.97;66.72;98170.81;5063539;28;45475;-52
2023/01/17 04:52:13;;;;;;;;;13.25;12.75;;;;;3.96;66.51;98164.75;5062824;28;45424;-52
2023/01/17 04:54:39;;;;;;;;;9.25;9.25;;;;;3.97;66.49;98165.59;5063068;28;47056;-51
2023/01/17 04:57:04;;;;;;;;;18.75;12.75;;;;;3.97;66.79;98168.19;5062844;28;45220;-53
2023/01/17 04:59:29;;;;;;;;;12.00;12.00;;;;;3.95;66.82;98165.66;5063464;28;45500;-53
2023/01/17 05:01:55;;;;;;;;;17.75;15.00;;;;;3.94;67.00;98161.34;5063172;28;45457;-50
2023/01/17 05:04:20;;;;;;;;;15.25;13.00;;;;;3.94;66.61;98155.28;5062772;28;46032;-52
2023/01/17 05:06:45;;;;;;;;;17.25;15.50;;;;;3.90;66.52;98152.78;5062694;28;45350;-49
2023/01/17 05:09:11;;;;;;;;;15.75;15.75;;;;;3.90;66.53;98144.16;5063217;28;45401;-53
2023/01/17 05:11:36;;;;;;;;;15.75;11.50;;;;;3.87;66.65;98144.22;5062853;28;45416;-52
2023/01/17 05:14:01;;;;;;;;;15.00;11.25;;;;;3.88;66.67;98143.34;5062815;28;46210;-49
2023/01/17 05:16:27;;;;;;;;;14.00;13.75;;;;;3.85;66.65;98140.81;5061380;28;45339;-49
2023/01/17 05:18:53;;;;;;;;;13.25;13.25;;;;;3.85;66.76;98139.06;5062922;28;45296;-53
2023/01/17 05:21:19;;;;;;;;;15.25;11.50;;;;;3.82;66.79;98128.75;5062299;28;45467;-52
2023/01/17 05:23:44;;;;;;;;;11.50;11.00;;;;;3.83;66.40;98129.63;5062652;28;46024;-53
2023/01/17 05:26:09;;;;;;;;;12.50;11.50;;;;;3.81;66.82;98128.81;5062658;28;45268;-53
2023/01/17 05:28:35;;;;;;;;;13.00;11.00;;;;;3.79;67.01;98121.06;5066189;28;45410;-53
2023/01/17 05:31:00;;;;;;;;;15.00;12.25;;;;;3.77;66.51;98124.59;5068910;28;45436;-52
2023/01/17 05:33:25;;;;;;;;;16.50;12.50;;;;;3.75;66.48;98124.66;5062473;28;45275;-51
2023/01/17 05:35:51;;;;;;;;;14.75;12.75;;;;;3.70;66.70;98122.16;5062550;28;45260;-53
2023/01/17 05:38:17;;;;;;;;;10.75;8.25;;;;;3.69;66.78;98119.63;5062394;28;45485;-53
2023/01/17 05:40:42;;;;;;;;;15.25;13.00;;;;;3.69;66.65;98114.44;5062441;28;45414;-53
2023/01/17 05:43:08;;;;;;;;;10.25;10.00;;;;;3.68;66.81;98107.53;5062186;28;45303;-51
2023/01/17 05:45:33;;;;;;;;;19.75;16.50;;;;;3.68;66.98;98104.94;5061108;28;45282;-53
2023/01/17 05:47:59;;;;;;;;;20.00;15.50;;;;;3.66;66.87;98104.97;5062402;28;45205;-50
2023/01/17 05:50:28;;;;;;;;;15.50;13.00;;;;;3.66;66.79;98094.59;5061453;28;45277;-53
2023/01/17 05:52:59;;;;;;;;;11.50;11.50;;;;;3.66;66.36;98091.13;5062018;28;47054;-53
2023/01/17 05:55:26;;;;;;;;;16.00;15.00;;;;;3.64;66.39;98093.75;5062209;28;45366;-52
2023/01/17 05:57:52;;;;;;;;;14.00;12.25;;;;;3.64;66.50;98091.16;5062167;28;45332;-53
2023/01/17 06:00:18;;;;;;;;;12.25;10.75;;;;;3.64;66.88;98096.38;5061978;28;45450;-51
2023/01/17 06:02:44;;;;;;;;;13.75;11.00;;;;;3.64;66.97;98095.53;5061994;28;45342;-53
2023/01/17 06:05:10;;;;;;;;;14.75;12.50;;;;;3.63;66.61;98094.66;5060495;28;45316;-52
2023/01/17 06:07:36;;;;;;;;;12.50;11.50;;;;;3.64;66.91;98098.13;5061850;28;45340;-52
2023/01/17 06:10:01;;;;;;;;;11.50;10.75;;;;;3.63;66.24;98086.88;5060733;28;45737;-53
2023/01/17 06:12:27;;;;;;;;;13.00;11.00;;;;;3.63;66.78;98078.22;5061641;28;46270;-51
2023/01/17 06:14:52;;;;;;;;;17.75;14.50;;;;;3.64;67.00;98085.13;5061779;28;45244;-50
2023/01/17 06:17:17;;;;;;;;;25.00;25.00;;;;;3.65;66.71;98084.22;5061957;28;45403;-52
2023/01/17 06:19:44;;;;;;;;;21.00;17.50;;;;;3.65;66.60;98082.50;5061783;28;45411;-53
2023/01/17 06:22:10;;;;;;;;;26.00;19.75;;;;;3.66;66.93;98079.00;5061358;28;47142;-53
2023/01/17 06:24:35;;;;;;;;;16.25;14.75;;;;;3.67;67.00;98077.25;5061578;28;45288;-54
2023/01/17 06:27:00;;;;;;;;;15.00;12.75;;;;;3.64;67.07;98070.38;5061735;28;45872;-54
2023/01/17 06:29:26;;;;;;;;;16.75;13.75;;;;;3.66;66.68;98081.59;5071243;28;45271;-53
2023/01/17 06:31:51;;;;;;;;;17.25;17.00;;;;;3.66;66.77;98084.19;5061512;28;45323;-53
2023/01/17 06:34:16;;;;;;;;;13.50;12.00;;;;;3.66;67.06;98084.19;5061576;28;45341;-52
2023/01/17 06:36:42;;;;;;;;;16.00;12.75;;;;;3.66;66.72;98081.59;5061421;28;45214;-53
2023/01/17 06:39:08;;;;;;;;;15.75;12.50;;;;;3.68;66.88;98076.34;5061461;28;45429;-53
2023/01/17 06:41:34;;;;;;;;;15.25;12.25;;;;;3.68;66.98;98072.00;5059819;28;48373;-54
2023/01/17 06:43:59;;;;;;;;;15.50;14.00;;;;;3.72;67.21;98085.75;5061290;28;45235;-54
2023/01/17 06:46:24;;;;;;;;;17.75;12.25;;;;;3.71;66.82;98081.44;5060176;28;45315;-53
2023/01/17 06:48:50;;;;;;;;;17.50;13.75;;;;;3.78;67.10;98085.56;5061401;28;45442;-53
2023/01/17 06:51:15;;;;;;;;;15.25;14.75;;;;;3.80;67.05;98082.94;5061036;28;45476;-51
2023/01/17 06:53:41;;;;;;;;;22.25;14.25;;;;;3.84;66.98;98081.97;5061269;28;45243;-52
2023/01/17 06:56:07;;;;;;;;;17.25;13.00;;;;;3.85;67.05;98079.31;5059761;28;45225;-51
2023/01/17 06:58:32;;;;;;;;;15.00;13.50;;;;;3.88;67.27;98080.97;5061397;28;45169;-54
2023/01/17 07:00:58;;;;;;;;;16.75;15.00;;;;;3.91;67.28;98086.06;5060902;28;45301;-53
2023/01/17 07:03:25;;;;;;;;;16.00;12.50;;;;;3.95;66.99;98084.22;5061105;28;45244;-52
2023/01/17 07:05:51;;;;;;;;;20.25;13.00;;;;;3.96;66.99;98081.59;5059918;28;45362;-51
2023/01/17 07:08:18;;;;;;;;;14.50;13.75;;;;;4.00;67.27;98082.34;5060805;28;45329;-51
2023/01/17 07:10:47;;;;;;;;;14.75;14.75;;;;;4.02;67.20;98075.34;5061099;28;45431;-53
2023/01/17 07:13:13;;;;;;;;;15.50;14.50;;;;;4.05;67.04;98075.25;5060598;28;45316;-52
2023/01/17 07:15:39;;;;;;;;;19.00;16.25;;;;;4.08;67.15;98082.97;5060948;28;45226;-52
2023/01/17 07:18:05;;;;;;;;;14.75;13.25;;;;;4.11;67.41;98088.06;5060894;28;45566;-54
2023/01/17 07:20:31;;;;;;;;;15.25;12.75;;;;;4.14;67.27;98082.78;5060884;28;46210;-52
2023/01/17 07:22:57;;;;;;;;;16.00;14.25;;;;;4.18;66.88;98089.59;5060304;28;45261;-53
2023/01/17 07:25:22;;;;;;;;;17.50;13.75;;;;;4.19;67.23;98082.66;5061012;28;45311;-53
2023/01/17 07:27:48;;;;;;;;;16.25;13.00;;;;;4.25;67.44;98087.63;5044921;28;45654;-53
2023/01/17 07:30:13;;;;;;;;;13.00;12.75;;;;;4.28;67.55;98086.72;5053916;28;47087;-53
2023/01/17 07:32:38;;;;;;;;;18.25;17.25;;;;;4.31;67.04;98082.25;5060674;28;45331;-53
2023/01/17 07:35:05;;;;;;;;;16.00;16.00;;;;;4.34;67.21;98081.31;5057098;28;45232;-51
2023/01/17 07:37:30;;;;;;;;;24.75;16.75;;;;;4.37;67.51;98081.22;5058949;28;45427;-52
2023/01/17 07:39:56;;;;;;;;;21.25;13.25;;;;;4.37;67.33;98069.06;5060095;28;45387;-53
2023/01/17 07:42:22;;;;;;;;;25.50;16.50;;;;;4.44;67.24;98077.53;5059998;28;45234;-52
2023/01/17 07:44:47;;;;;;;;;17.75;14.25;;;;;4.46;67.32;98069.69;5052005;28;45490;-54
2023/01/17 07:47:13;;;;;;;;;19.25;16.00;;;;;4.49;67.28;98069.56;5058969;28;45586;-49
2023/01/17 07:49:38;;;;;;;;;15.75;15.00;;;;;4.51;67.37;98066.03;5060002;28;45219;-53
2023/01/17 07:52:06;;;;;;;;;18.75;17.75;;;;;4.52;67.22;98067.72;5058541;28;45276;-49
2023/01/17 07:54:31;;;;;;;;;25.50;17.50;;;;;4.56;67.58;98066.72;5060197;28;45308;-48
2023/01/17 07:56:56;;;;;;;;;17.50;15.75;;;;;4.57;67.48;98065.00;5059581;28;45244;-53
2023/01/17 07:59:22;;;;;;;;;21.75;17.00;;;;;4.63;67.37;98071.72;5059788;28;45403;-52
2023/01/17 08:01:47;;;;;;;;;20.75;18.00;;;;;4.65;67.87;98064.72;5058590;28;45395;-53
2023/01/17 08:04:13;;;;;;;;;19.50;17.50;;;;;4.68;67.56;98072.44;5059977;28;45435;-53
2023/01/17 08:06:42;;;;;;;;;18.50;14.25;;;;;4.70;67.48;98081.03;5059594;28;45550;-52
2023/01/17 08:09:08;;;;;;;;;17.75;13.50;;;;;4.72;67.65;98071.44;5058498;28;47000;-53
2023/01/17 08:11:33;;;;;;;;;20.75;17.50;;;;;4.74;67.66;98079.19;5059418;28;45374;-50
2023/01/17 08:13:59;;;;;;;;;16.75;13.50;;;;;4.77;67.72;98090.34;5059394;28;45342;-49
2023/01/17 08:16:25;;;;;;;;;23.50;19.25;;;;;4.78;67.64;98079.06;5059674;28;45652;-57
2023/01/17 08:18:51;;;;;;;;;20.50;17.50;;;;;4.80;67.79;98087.63;5059919;28;46455;-58
2023/01/17 08:21:17;;;;;;;;;28.25;18.75;;;;;4.84;67.46;98091.00;5059487;28;45334;-58
2023/01/17 08:23:49;;;;;;;;;22.75;17.75;;;;;4.84;67.71;98091.00;5059814;28;46374;-58
2023/01/17 08:26:20;;;;;;;;;19.00;18.50;;;;;4.86;67.89;98087.44;5058647;28;45178;-58
2023/01/17 08:28:54;;;;;;;;;19.50;12.75;;;;;4.87;67.67;98080.50;5047558;28;46062;-58
2023/01/17 08:31:20;;;;;;;;;15.25;14.00;;;;;4.90;67.88;98084.75;5059391;28;45336;-59
2023/01/17 08:33:45;;;;;;;;;19.00;15.50;;;;;4.91;67.69;98087.28;5059709;28;45260;-58
2023/01/17 08:36:10;;;;;;;;;14.50;13.75;;;;;4.94;67.58;98083.72;5058478;28;45333;-59
2023/01/17 08:38:36;;;;;;;;;21.00;17.00;;;;;4.96;67.82;98087.97;5059690;28;46189;-60
2023/01/17 08:41:01;;;;;;;;;17.00;15.50;;;;;4.97;67.86;98079.28;5059115;28;45215;-59
2023/01/17 08:43:27;;;;;;;;;18.75;17.25;;;;;4.99;67.61;98082.69;5059543;28;45854;-59
2023/01/17 08:45:54;;;;;;;;;19.00;16.25;;;;;5.02;67.65;98081.72;5059254;28;45311;-57
2023/01/17 08:48:21;;;;;;;;;19.50;18.75;;;;;5.04;67.86;98075.56;5059414;28;46008;-58
2023/01/17 08:50:46;;;;;;;;;25.00;18.50;;;;;5.07;67.72;98066.81;5051227;28;45635;-58
2023/01/17 08:53:12;;;;;;;;;22.00;21.25;;;;;5.09;67.48;98064.13;5041244;28;45407;-57
2023/01/17 08:55:39;;;;;;;;;29.75;27.50;;;;;5.12;67.72;98064.88;5059123;28;45332;-59
2023/01/17 08:58:05;;;;;;;;;27.75;25.75;;;;;5.15;67.79;98061.31;5057723;28;46987;-60
2023/01/17 09:00:31;;;;;;;;;31.50;23.50;;;;;5.17;67.66;98059.50;5058978;28;45921;-60
2023/01/17 09:02:57;;;;;;;;;24.00;20.00;;;;;5.19;67.71;98053.38;5059477;28;45218;-60
2023/01/17 09:05:22;;;;;;;;;23.00;20.75;;;;;5.21;67.72;98048.94;5058890;28;45218;-62
2023/01/17 09:07:47;;;;;;;;;26.00;23.75;;;;;5.24;67.66;98053.19;5058682;28;46013;-59
2023/01/17 09:10:13;;;;;;;;;26.25;22.75;;;;;5.29;67.50;98045.22;5059215;28;45269;-60
2023/01/17 09:12:39;;;;;;;;;32.75;26.75;;;;;5.21;67.68;98033.31;5058042;28;45420;-59
2023/01/17 09:15:05;;;;;;;;;24.25;21.75;;;;;5.34;67.71;98053.72;5059211;28;45520;-58
2023/01/17 09:17:30;;;;;;;;;24.50;23.25;;;;;5.38;67.74;98052.69;5059146;28;45588;-58
2023/01/17 09:19:58;;;;;;;;;25.00;22.50;;;;;5.40;67.71;98053.50;5057857;28;45407;-58
2023/01/17 09:22:24;;;;;;;;;29.75;25.00;;;;;5.44;67.57;98054.25;5059045;28;45409;-58
2023/01/17 09:24:49;;;;;;;;;24.25;23.00;;;;;5.46;67.69;98053.28;5060322;28;45386;-58
2023/01/17 09:27:14;;;;;;;;;32.50;24.75;;;;;5.49;67.78;98054.91;5060881;28;46019;-58
2023/01/17 09:29:40;;;;;;;;;29.00;24.50;;;;;5.51;67.67;98056.56;5062160;28;45437;-57
2023/01/17 09:32:05;;;;;;;;;25.00;24.00;;;;;5.54;67.66;98055.59;5062325;28;45476;-58
2023/01/17 09:34:30;;;;;;;;;27.75;23.75;;;;;5.57;67.71;98059.84;5062174;28;45478;-58
2023/01/17 09:36:56;;;;;;;;;28.00;22.50;;;;;5.60;68.06;98065.78;5061939;28;45217;-58
2023/01/17 09:39:21;;;;;;;;;26.25;23.75;;;;;5.63;67.63;98059.63;5062332;28;45424;-58
2023/01/17 09:41:59;;;;;;;;;27.25;22.50;;;;;5.67;67.78;98066.41;5062394;28;45224;-58
2023/01/17 09:44:31;;;;;;;;;23.75;19.50;;;;;5.69;67.83;98068.06;5062414;28;45249;-58
2023/01/17 09:47:03;;;;;;;;;19.00;19.00;;;;;5.73;67.76;98078.38;5062418;28;45497;-58
2023/01/17 09:49:43;;;;;;;;;28.00;24.50;;;;;5.77;67.63;98080.78;5062169;28;45391;-58
2023/01/17 09:52:13;;;;;;;;;23.25;21.50;;;;;5.80;67.85;98077.25;5061990;28;45270;-58
2023/01/17 09:54:40;;;;;;;;;24.00;21.50;;;;;5.84;67.87;98082.28;5062167;28;45390;-58
2023/01/17 09:57:31;;;;;;;;;22.25;19.25;;;;;5.88;67.70;98076.97;5060528;28;46040;-58
2023/01/17 10:00:14;;;;;;;;;29.25;22.75;;;;;5.92;67.66;98081.16;5062227;28;45414;-58
2023/01/17 10:03:15;;;;;;;;;24.75;22.75;;;;;5.94;67.75;98084.56;5062016;28;45254;-58
2023/01/17 10:05:40;;;;;;;;;30.00;23.75;;;;;5.97;67.79;98090.47;5061875;28;45212;-58
2023/01/17 10:08:28;;;;;;;;;23.75;18.75;;;;;5.99;67.81;98087.88;5061686;28;46151;-58
2023/01/17 10:11:19;;;;;;;;;21.00;19.50;;;;;6.01;67.95;98086.91;5061839;28;45478;-58
2023/01/17 10:14:02;;;;;;;;;24.50;20.50;;;;;6.04;67.92;98096.38;5060499;28;45494;-58
2023/01/17 10:16:39;;;;;;;;;27.75;20.25;;;;;6.08;67.72;98097.09;5061893;28;45315;-58
2023/01/17 10:19:29;;;;;;;;;21.75;18.25;;;;;6.09;67.58;98097.03;5061762;28;46177;-58
2023/01/17 10:21:57;;;;;;;;;27.00;23.25;;;;;6.13;67.86;98102.97;5061470;28;45434;-58
2023/01/17 10:24:45;;;;;;;;;26.50;20.25;;;;;6.14;67.66;98100.31;5061855;28;45331;-58
2023/01/17 10:27:20;;;;;;;;;20.50;15.75;;;;;6.16;67.74;98106.31;5061870;28;45557;-58
2023/01/17 10:29:47;;;;;;;;;16.00;13.75;;;;;6.16;67.73;98098.50;5061649;28;46270;-58
2023/01/17 10:32:13;;;;;;;;;16.25;14.25;;;;;6.18;67.80;98103.66;5061405;28;45312;-57
2023/01/17 10:34:42;;;;;;;;;19.00;14.75;;;;;6.21;67.75;98100.06;5061751;28;45247;-58
2023/01/17 10:37:19;;;;;;;;;15.00;15.00;;;;;6.24;67.62;98099.94;5060804;28;45368;-57
2023/01/17 10:39:47;;;;;;;;;15.50;13.25;;;;;6.26;67.83;98098.13;5061176;28;46012;-57
2023/01/17 10:42:23;;;;;;;;;17.00;15.00;;;;;6.27;67.64;98092.03;5061177;28;45419;-57
2023/01/17 10:44:57;;;;;;;;;19.25;18.25;;;;;6.31;67.51;98093.59;5061538;28;45426;-58
2023/01/17 10:47:24;;;;;;;;;14.50;13.00;;;;;6.35;67.58;98092.56;5061537;28;45216;-57
2023/01/17 10:49:55;;;;;;;;;18.50;14.75;;;;;6.39;67.55;98101.97;5061134;28;46093;-57
2023/01/17 10:52:29;;;;;;;;;14.00;13.50;;;;;6.44;67.60;98101.78;5061044;28;45280;-57
2023/01/17 10:55:32;;;;;;;;;17.00;15.25;;;;;6.47;67.65;98094.69;5059928;28;45457;-57
2023/01/17 10:57:57;;;;;;;;;16.00;14.75;;;;;6.49;67.72;98087.66;5060841;28;45444;-59
2023/01/17 11:00:47;;;;;;;;;15.50;14.00;;;;;6.54;67.67;98086.63;5060994;28;46985;-57
2023/01/17 11:03:15;;;;;;;;;15.50;14.25;;;;;6.56;67.55;98087.41;5061059;28;45243;-58
2023/01/17 11:05:41;;;;;;;;;16.50;16.00;;;;;6.59;67.60;98089.88;5059736;28;45348;-58
2023/01/17 11:08:12;;;;;;;;;16.25;15.50;;;;;6.61;67.66;98073.25;5060612;28;45315;-57
2023/01/17 11:10:43;;;;;;;;;21.00;19.00;;;;;6.64;67.78;98080.09;5060843;28;46025;-58
2023/01/17 11:13:20;;;;;;;;;19.75;13.25;;;;;6.67;67.59;98072.16;5060571;28;45276;-57
2023/01/17 11:15:57;;;;;;;;;12.50;11.00;;;;;6.66;67.65;98063.47;5060727;28;45248;-57
2023/01/17 11:18:27;;;;;;;;;16.50;13.50;;;;;6.70;67.59;98063.38;5060801;28;45327;-57
2023/01/17 11:21:10;;;;;;;;;18.25;11.75;;;;;6.70;67.70;98058.97;5060301;28;45346;-57
2023/01/17 11:23:37;;;;;;;;;13.50;11.50;;;;;6.72;67.52;98057.16;5060878;28;45508;-57
2023/01/17 11:26:06;;;;;;;;;15.25;10.75;;;;;6.73;67.33;98056.25;5060606;28;45378;-57
2023/01/17 11:28:37;;;;;;;;;14.00;12.25;;;;;6.74;67.54;98055.34;5066042;28;45537;-57
2023/01/17 11:31:08;;;;;;;;;17.75;13.75;;;;;6.75;67.62;98057.03;5059176;28;47150;-57
2023/01/17 11:33:54;;;;;;;;;15.00;13.25;;;;;6.77;67.52;98060.44;5060647;28;45250;-58
2023/01/17 11:36:28;;;;;;;;;16.00;13.00;;;;;6.77;67.46;98060.44;5060255;28;45260;-57
2023/01/17 11:39:02;;;;;;;;;14.50;10.00;;;;;6.81;67.39;98050.72;5060469;28;45386;-57
2023/01/17 11:41:35;;;;;;;;;12.50;12.50;;;;;6.82;67.50;98053.25;5060296;28;46416;-57
2023/01/17 11:44:01;;;;;;;;;17.25;13.75;;;;;6.85;67.38;98052.28;5060436;28;45392;-58
2023/01/17 11:46:28;;;;;;;;;11.75;11.00;;;;;6.86;67.51;98048.75;5060424;28;45216;-57
2023/01/17 11:48:58;;;;;;;;;14.25;12.75;;;;;6.88;67.63;98043.47;5059633;28;45558;-58
2023/01/17 11:51:24;;;;;;;;;12.50;12.25;;;;;6.88;67.09;98040.84;5060018;28;46176;-58
2023/01/17 11:53:50;;;;;;;;;13.50;13.50;;;;;6.90;67.30;98042.50;5060229;28;45307;-58
2023/01/17 11:56:29;;;;;;;;;18.50;12.75;;;;;6.89;67.43;98040.78;5060361;28;45316;-58
2023/01/17 11:59:16;;;;;;;;;10.75;10.00;;;;;6.92;67.24;98038.06;5060370;28;45420;-58
2023/01/17 12:01:51;;;;;;;;;14.50;12.50;;;;;6.93;67.72;98036.28;5059903;28;47440;-58
2023/01/17 12:04:38;;;;;;;;;15.00;15.00;;;;;6.93;67.32;98034.53;5059954;28;45420;-58
2023/01/17 12:07:06;;;;;;;;;13.50;11.25;;;;;6.93;67.36;98028.44;5060167;28;45546;-57
2023/01/17 12:09:41;;;;;;;;;15.00;11.75;;;;;6.96;66.93;98028.34;5059964;28;45446;-57
2023/01/17 12:15:45;;;;;;;;;23.00;14.25;;;;;6.97;67.65;98010.00;5059812;28;45326;-57
2023/01/17 12:18:32;;;;;;;;;55.75;42.75;;;;;7.00;67.05;98015.06;5060063;28;45326;-57
2023/01/17 12:21:00;;;;;;;;;18.75;15.00;;;;;7.04;67.19;98020.16;5059562;28;45315;-57
2023/01/17 12:23:43;;;;;;;;;20.75;17.25;;;;;7.03;67.52;98014.13;5059802;28;47357;-57
2023/01/17 12:26:24;;;;;;;;;20.25;11.75;;;;;7.05;67.14;98020.09;5059420;28;45323;-57
2023/01/17 12:29:04;;;;;;;;;18.00;16.00;;;;;7.05;67.26;98014.88;5054310;28;45229;-58
2023/01/17 12:31:44;;;;;;;;;22.75;15.00;;;;;7.06;67.39;98013.97;5059800;28;45578;-59
2023/01/17 12:34:28;;;;;;;;;15.00;13.75;;;;;7.08;67.19;98016.50;5059198;28;45327;-58
2023/01/17 12:37:16;;;;;;;;;16.25;16.00;;;;;7.07;67.20;98006.97;5057978;28;45310;-58
2023/01/17 12:39:52;;;;;;;;;17.25;15.00;;;;;7.06;67.36;98013.13;5059993;28;45394;-57
2023/01/17 12:42:23;;;;;;;;;14.75;13.00;;;;;7.06;67.15;98007.91;5059477;28;45355;-63
2023/01/17 12:45:03;;;;;;;;;13.75;13.75;;;;;7.06;67.45;98008.75;5059502;28;47121;-58
2023/01/17 12:47:33;;;;;;;;;16.25;15.00;;;;;7.07;67.29;98009.56;5059659;28;45410;-58
2023/01/17 12:50:23;;;;;;;;;18.25;16.50;;;;;7.06;67.05;98000.91;5059500;28;45706;-58
2023/01/17 12:52:58;;;;;;;;;19.50;15.25;;;;;7.06;67.12;98003.53;5059261;28;45355;-58
2023/01/17 12:55:47;;;;;;;;;19.00;16.00;;;;;7.07;67.27;98002.59;5059392;28;46022;-58
2023/01/17 12:58:21;;;;;;;;;16.75;13.50;;;;;7.09;67.13;98003.38;5055909;28;45216;-58
2023/01/17 13:00:55;;;;;;;;;19.25;18.25;;;;;7.10;67.19;98001.63;5062997;28;45263;-58
2023/01/17 13:03:34;;;;;;;;;14.75;13.50;;;;;7.09;67.23;98002.53;5062829;28;45277;-59